Time;durP1;ratioP1;P1;durP2;ratioP2;P2;SDS_P1;SDS_P2;PMS_P1;PMS_P2;Temp;Humidity;BMP_temperature;BMP_pressure;BME280_temperature;BME280_humidity;BME280_pressure;Samples;Min_cycle;Max_cycle;Signal;HPM_P1;HPM_P2
2023/10/07 00:03:26;;;;;;;8.73;5.43;;;;;;;;;;6230946;28;20196;-63
2023/10/07 00:06:27;;;;;;;9.37;4.80;;;;;;;;;;6211866;28;20194;-63
2023/10/07 00:09:28;;;;;;;6.63;5.10;;;;;;;;;;6232740;28;20213;-63
2023/10/07 00:12:30;;;;;;;7.63;5.00;;;;;;;;;;6195153;28;20241;-62
2023/10/07 00:15:31;;;;;;;5.97;5.23;;;;;;;;;;6208162;28;20203;-62
2023/10/07 00:18:34;;;;;;;7.33;4.97;;;;;;;;;;6229823;28;20244;-62
2023/10/07 00:21:52;;;;;;;7.37;5.53;;;24.00;50.00;;;;;;6209307;28;20205;-62
2023/10/07 00:24:53;;;;;;;6.63;5.17;;;11.50;85.30;;;;;;6209669;28;20252;-62
2023/10/07 00:27:54;;;;;;;6.20;5.20;;;11.30;85.80;;;;;;6194419;28;20201;-62
2023/10/07 00:30:55;;;;;;;8.80;5.50;;;11.30;86.30;;;;;;6219698;28;20218;-62
2023/10/07 00:34:06;;;;;;;8.77;5.23;;;11.30;86.10;;;;;;6184685;28;20199;-62
2023/10/07 00:37:07;;;;;;;7.63;5.20;;;11.30;86.00;;;;;;6210530;28;20191;-62
2023/10/07 00:40:14;;;;;;;6.03;4.73;;;11.30;86.10;;;;;;6195644;28;20186;-62
2023/10/07 00:43:30;;;;;;;7.03;5.50;;;11.30;86.60;;;;;;6196991;28;20241;-62
2023/10/07 00:46:34;;;;;;;7.07;5.10;;;11.20;86.00;;;;;;6214775;28;20195;-62
2023/10/07 00:49:50;;;;;;;9.37;6.17;;;11.20;87.00;;;;;;6209981;28;20218;-63
2023/10/07 00:55:54;;;;;;;12.37;5.60;;;11.30;86.50;;;;;;6238016;28;20207;-63
2023/10/07 00:58:55;;;;;;;9.07;5.60;;;11.30;86.10;;;;;;6195777;28;20195;-62
2023/10/07 01:01:57;;;;;;;7.57;5.83;;;11.20;86.20;;;;;;6184571;28;20194;-62
2023/10/07 01:05:06;;;;;;;8.13;5.47;;;11.20;86.40;;;;;;6200427;28;20199;-63
2023/10/07 01:08:07;;;;;;;8.87;5.60;;;11.10;86.50;;;;;;6211248;28;20197;-63
2023/10/07 01:11:30;;;;;;;7.10;5.30;;;11.10;87.30;;;;;;6187595;28;20186;-63
2023/10/07 01:14:33;;;;;;;7.93;5.77;;;11.20;87.60;;;;;;6218408;28;20203;-63
2023/10/07 01:17:40;;;;;;;8.93;6.30;;;11.20;87.30;;;;;;6184478;28;20195;-62
2023/10/07 01:21:05;;;;;;;7.73;5.50;;;11.20;87.50;;;;;;6192155;28;20270;-63
2023/10/07 01:24:06;;;;;;;10.53;6.40;;;11.10;87.50;;;;;;6213352;28;20239;-62
2023/10/07 01:30:26;;;;;;;6.53;5.33;;;11.10;87.10;;;;;;6243631;28;20290;-63
2023/10/07 01:33:35;;;;;;;10.20;5.70;;;11.10;87.10;;;;;;6196570;28;20279;-63
2023/10/07 01:36:36;;;;;;;7.17;5.50;;;11.10;86.80;;;;;;6199267;28;20193;-63
2023/10/07 01:39:42;;;;;;;5.90;5.30;;;11.10;86.90;;;;;;6197066;28;20202;-63
2023/10/07 01:42:44;;;;;;;7.07;5.67;;;11.10;87.00;;;;;;6187456;28;20252;-63
2023/10/07 01:45:47;;;;;;;7.53;4.93;;;11.10;87.20;;;;;;6212386;28;20198;-63
2023/10/07 01:48:57;;;;;;;8.70;5.83;;;11.10;86.80;;;;;;6216871;28;20218;-63
2023/10/07 01:51:58;;;;;;;7.37;5.63;;;11.00;86.90;;;;;;6209227;28;20213;-63
2023/10/07 01:54:59;;;;;;;9.80;5.20;;;11.00;87.20;;;;;;6216465;28;20206;-63
2023/10/07 01:58:00;;;;;;;8.07;5.47;;;11.10;87.20;;;;;;6207803;28;20195;-63
2023/10/07 02:01:01;;;;;;;8.27;5.97;;;11.10;86.90;;;;;;6218210;28;20224;-63
2023/10/07 02:04:11;;;;;;;8.70;5.03;;;11.10;86.80;;;;;;6191511;28;20198;-62
2023/10/07 02:07:12;;;;;;;8.27;5.93;;;11.00;87.00;;;;;;6219033;28;20202;-62
2023/10/07 02:10:23;;;;;;;8.17;6.00;;;11.10;87.50;;;;;;6193931;28;20211;-63
2023/10/07 02:13:27;;;;;;;7.53;5.90;;;11.00;87.20;;;;;;6184516;28;20210;-63
2023/10/07 02:16:28;;;;;;;8.33;6.13;;;11.00;86.80;;;;;;6214065;28;20202;-63
2023/10/07 02:19:32;;;;;;;9.37;5.90;;;11.00;86.80;;;;;;6196906;28;20193;-63
2023/10/07 02:22:32;;;;;;;6.67;5.10;;;11.00;86.60;;;;;;6241225;28;20188;-63
2023/10/07 02:25:34;;;;;;;7.90;5.60;;;10.90;86.50;;;;;;6215110;28;20205;-62
2023/10/07 02:28:34;;;;;;;6.17;5.43;;;10.80;86.60;;;;;;6207437;28;20235;-63
2023/10/07 02:31:44;;;;;;;6.73;5.60;;;10.80;86.90;;;;;;6218141;28;20221;-62
2023/10/07 02:34:51;;;;;;;8.03;5.73;;;10.80;87.10;;;;;;6203886;28;20190;-62
2023/10/07 02:37:52;;;;;;;6.83;5.63;;;10.80;86.90;;;;;;6239829;28;20187;-62
2023/10/07 02:40:53;;;;;;;6.73;5.70;;;10.80;86.90;;;;;;6195775;28;20195;-62
2023/10/07 02:43:53;;;;;;;9.17;6.00;;;10.80;87.10;;;;;;6183935;28;20195;-63
2023/10/07 02:46:56;;;;;;;8.80;6.03;;;10.80;87.00;;;;;;6198229;28;20199;-63
2023/10/07 02:50:00;;;;;;;6.80;5.60;;;10.70;87.00;;;;;;6207340;28;20222;-63
2023/10/07 02:53:10;;;;;;;6.73;5.40;;;10.70;86.60;;;;;;6218488;28;20187;-63
2023/10/07 02:56:17;;;;;;;6.50;5.40;;;10.70;86.40;;;;;;6202284;28;20289;-63
2023/10/07 02:59:30;;;;;;;7.50;5.90;;;10.60;87.20;;;;;;6191974;28;20199;-63
2023/10/07 03:02:48;;;;;;;6.10;5.50;;;10.70;87.50;;;;;;6191792;28;20206;-63
2023/10/07 03:05:58;;;;;;;7.47;5.10;;;10.70;86.90;;;;;;6198140;28;20191;-63
2023/10/07 03:12:04;;;;;;;7.87;6.20;;;10.60;87.20;;;;;;6216493;28;20201;-63
2023/10/07 03:15:20;;;;;;;6.27;5.13;;;10.70;86.70;;;;;;6195136;28;20246;-62
2023/10/07 03:18:21;;;;;;;8.17;5.27;;;10.60;86.50;;;;;;6204844;28;20258;-62
2023/10/07 03:24:41;;;;;;;9.03;6.03;;;10.60;86.40;;;;;;6207943;28;20246;-62
2023/10/07 03:27:49;;;;;;;8.00;5.20;;;10.60;86.50;;;;;;6195168;28;20190;-63
2023/10/07 03:30:56;;;;;;;6.27;5.07;;;10.60;86.40;;;;;;6197063;28;20217;-62
2023/10/07 03:33:59;;;;;;;7.90;5.27;;;10.50;86.40;;;;;;6199655;28;20236;-62
2023/10/07 03:40:35;;;;;;;7.60;5.73;;;10.50;86.60;;;;;;6227508;28;20274;-62
2023/10/07 03:43:37;;;;;;;5.87;5.20;;;10.50;87.10;;;;;;6204506;28;20205;-62
2023/10/07 03:46:38;;;;;;;6.73;5.00;;;10.50;87.10;;;;;;6203028;28;20289;-62
2023/10/07 03:49:42;;;;;;;7.10;5.33;;;10.50;87.00;;;;;;6208701;28;20214;-65
2023/10/07 03:52:42;;;;;;;6.63;5.37;;;10.50;86.80;;;;;;6193732;28;20194;-64
2023/10/07 03:55:43;;;;;;;6.33;5.07;;;10.50;86.80;;;;;;6187287;28;20274;-64
2023/10/07 03:58:44;;;;;;;5.57;4.77;;;10.40;86.60;;;;;;6207036;28;20186;-65
2023/10/07 04:01:45;;;;;;;9.07;5.40;;;10.40;86.70;;;;;;6200258;28;20194;-65
2023/10/07 04:04:45;;;;;;;8.10;5.70;;;10.40;86.30;;;;;;6195149;28;20216;-65
2023/10/07 04:07:46;;;;;;;6.53;5.33;;;10.40;87.00;;;;;;6210125;28;20194;-64
2023/10/07 04:10:54;;;;;;;7.17;5.33;;;10.40;86.20;;;;;;6185400;28;20278;-64
2023/10/07 04:13:56;;;;;;;5.60;4.60;;;10.40;86.30;;;;;;6194817;28;20188;-65
2023/10/07 04:17:05;;;;;;;7.67;5.57;;;10.40;86.70;;;;;;6218717;28;20191;-66
2023/10/07 04:23:34;;;;;;;6.07;5.30;;;10.40;87.20;;;;;;6199473;28;20238;-66
2023/10/07 04:26:34;;;;;;;8.47;5.50;;;10.40;87.20;;;;;;6190065;28;20251;-64
2023/10/07 04:29:37;;;;;;;5.67;5.00;;;10.40;86.90;;;;;;6194322;28;20218;-65
2023/10/07 04:32:52;;;;;;;6.37;5.20;;;10.30;86.80;;;;;;6195530;28;20183;-63
2023/10/07 04:35:57;;;;;;;7.53;5.40;;;;;;;;;;6205368;28;20183;-63
2023/10/07 04:38:58;;;;;;;8.47;5.70;;;;;;;;;;6224441;28;20189;-62
2023/10/07 04:42:04;;;;;;;6.83;5.17;;;;;;;;;;6215455;28;20191;-63
2023/10/07 04:45:22;;;;;;;6.97;5.33;;;;;;;;;;6206891;28;20207;-63
2023/10/07 04:49:35;;;;;;;8.07;5.77;;;;;;;;;;6204379;28;20192;-62
2023/10/07 04:51:58;;;;;;;5.93;4.80;;;;;;;;;;6209845;28;20183;-63
2023/10/07 04:54:59;;;;;;;6.70;5.30;;;;;;;;;;6227206;28;20187;-63
2023/10/07 04:58:03;;;;;;;8.03;5.10;;;;;;;;;;6219317;28;20182;-62
2023/10/07 05:01:22;;;;;;;6.97;5.60;;;;;;;;;;6216015;28;20179;-63
2023/10/07 05:04:24;;;;;;;7.07;5.47;;;;;;;;;;6201958;28;20202;-63
2023/10/07 05:07:26;;;;;;;6.17;4.70;;;;;;;;;;6210349;28;20194;-64
2023/10/07 05:10:29;;;;;;;6.07;4.57;;;;;;;;;;6204372;28;20275;-64
2023/10/07 05:13:32;;;;;;;5.47;4.90;;;;;;;;;;6195143;28;20257;-63
2023/10/07 05:16:34;;;;;;;6.33;4.70;;;;;;;;;;6212104;28;20187;-63
2023/10/07 05:19:37;;;;;;;6.60;5.13;;;;;;;;;;6221636;28;20187;-63
2023/10/07 05:22:38;;;;;;;7.50;5.90;;;;;;;;;;6190004;28;20187;-63
2023/10/07 05:25:43;;;;;;;7.57;5.87;;;;;;;;;;6199306;28;20248;-64
2023/10/07 05:28:45;;;;;;;7.70;5.13;;;;;;;;;;6201480;28;20219;-64
2023/10/07 05:31:46;;;;;;;8.57;6.07;;;;;;;;;;6209614;28;20187;-63
2023/10/07 05:34:47;;;;;;;7.23;5.07;;;;;;;;;;6206351;28;20214;-64
2023/10/07 05:37:49;;;;;;;6.13;5.30;;;;;;;;;;6203461;28;20193;-66
2023/10/07 05:40:50;;;;;;;7.17;5.40;;;;;;;;;;6195442;28;20206;-66
2023/10/07 05:43:52;;;;;;;6.50;5.13;;;;;;;;;;6197403;28;20191;-64
2023/10/07 05:46:53;;;;;;;5.60;4.90;;;;;;;;;;6227105;28;20201;-64
2023/10/07 05:49:55;;;;;;;6.33;5.23;;;;;;;;;;6212077;28;20216;-64
2023/10/07 05:52:56;;;;;;;5.50;4.90;;;;;;;;;;6204847;28;20209;-63
2023/10/07 05:55:57;;;;;;;7.47;5.63;;;;;;;;;;6208282;28;20194;-64
2023/10/07 05:58:58;;;;;;;6.67;5.30;;;;;;;;;;6205597;28;20277;-63
2023/10/07 06:02:02;;;;;;;6.80;5.20;;;;;;;;;;6202062;28;20195;-63
2023/10/07 06:05:05;;;;;;;6.60;5.33;;;;;;;;;;6230172;28;20191;-63
2023/10/07 06:08:07;;;;;;;8.10;5.37;;;;;;;;;;6212964;28;20187;-63
2023/10/07 06:11:11;;;;;;;6.00;4.83;;;;;;;;;;6223873;28;20214;-64
2023/10/07 06:14:12;;;;;;;6.53;5.13;;;;;;;;;;6211900;28;20191;-66
2023/10/07 06:17:13;;;;;;;6.87;5.47;;;;;;;;;;6204518;28;20206;-64
2023/10/07 06:20:14;;;;;;;7.03;4.93;;;;;;;;;;6215492;28;20190;-64
2023/10/07 06:23:16;;;;;;;7.43;5.60;;;;;;;;;;6210382;28;20244;-64
2023/10/07 06:26:18;;;;;;;7.53;5.40;;;;;;;;;;6207050;28;20216;-64
2023/10/07 06:29:19;;;;;;;6.43;4.67;;;;;;;;;;6228208;28;20214;-63
2023/10/07 06:32:24;;;;;;;7.40;4.87;;;;;;;;;;6212897;28;20204;-64
2023/10/07 06:35:25;;;;;;;8.53;4.80;;;;;;;;;;6215877;28;20190;-63
2023/10/07 06:38:26;;;;;;;7.83;5.23;;;;;;;;;;6213781;28;20187;-69
2023/10/07 06:41:31;;;;;;;5.93;4.83;;;;;;;;;;6201847;28;20251;-64
2023/10/07 06:44:32;;;;;;;12.93;5.87;;;;;;;;;;6221711;28;20187;-63
2023/10/07 06:47:33;;;;;;;6.97;4.77;;;;;;;;;;6202708;28;20285;-64
2023/10/07 06:50:34;;;;;;;7.80;5.43;;;;;;;;;;6212573;28;20249;-64
2023/10/07 06:53:38;;;;;;;6.13;5.27;;;;;;;;;;6213579;28;20202;-63
2023/10/07 06:56:39;;;;;;;8.60;5.03;;;;;;;;;;6210415;28;20201;-63
2023/10/07 06:59:45;;;;;;;7.20;5.33;;;;;;;;;;6206302;28;20194;-64
2023/10/07 07:02:54;;;;;;;7.00;5.20;;;;;;;;;;6214516;28;20248;-64
2023/10/07 07:05:55;;;;;;;7.70;5.40;;;;;;;;;;6214442;28;20191;-64
2023/10/07 07:08:56;;;;;;;7.07;4.83;;;;;;;;;;6205239;28;20264;-64
2023/10/07 07:11:58;;;;;;;7.17;5.10;;;;;;;;;;6208583;28;20202;-64
2023/10/07 07:15:04;;;;;;;8.73;5.77;;;;;;;;;;6230964;28;20187;-64
2023/10/07 07:18:14;;;;;;;5.83;4.87;;;;;;;;;;6214704;28;20199;-63
2023/10/07 07:24:33;;;;;;;7.17;4.63;;;;;;;;;;6230429;28;20369;-63
2023/10/07 07:27:34;;;;;;;7.17;4.47;;;;;;;;;;6217115;28;20224;-63
2023/10/07 07:30:35;;;;;;;9.43;5.47;;;;;;;;;;6226563;28;20210;-63
2023/10/07 07:33:36;;;;;;;7.30;5.07;;;;;;;;;;6200882;28;20240;-63
2023/10/07 07:36:38;;;;;;;10.60;5.53;;;;;;;;;;6209236;28;20274;-63
2023/10/07 07:39:39;;;;;;;9.40;5.40;;;;;;;;;;6212612;28;20249;-62
2023/10/07 07:42:44;;;;;;;6.60;4.90;;;;;;;;;;6205272;28;20191;-65
2023/10/07 07:45:56;;;;;;;6.87;5.10;;;;;;;;;;6209110;28;20195;-67
2023/10/07 07:49:06;;;;;;;6.93;4.73;;;;;;;;;;6215713;28;20253;-63
2023/10/07 07:52:08;;;;;;;8.40;5.53;;;;;;;;;;6200896;28;20226;-65
2023/10/07 07:55:12;;;;;;;7.77;4.80;;;;;;;;;;6212288;28;20182;-64
2023/10/07 07:58:13;;;;;;;8.57;5.00;;;;;;;;;;6222362;28;20199;-66
2023/10/07 08:01:22;;;;;;;7.53;5.43;;;;;;;;;;6206130;28;20222;-64
2023/10/07 08:04:39;;;;;;;8.03;5.77;;;;;;;;;;6210313;28;20210;-64
2023/10/07 08:07:43;;;;;;;8.00;5.23;;;;;;;;;;6228564;28;20192;-65
2023/10/07 08:10:46;;;;;;;7.40;4.67;;;;;;;;;;6212453;28;20249;-64
2023/10/07 08:13:53;;;;;;;6.90;5.23;;;;;;;;;;6211533;28;20187;-64
2023/10/07 08:16:54;;;;;;;6.77;4.83;;;;;;;;;;6224005;28;20198;-64
2023/10/07 08:19:57;;;;;;;7.80;4.87;;;;;;;;;;6209007;28;20202;-63
2023/10/07 08:23:06;;;;;;;6.43;4.97;;;;;;;;;;6209091;28;20325;-64
2023/10/07 08:26:12;;;;;;;5.67;4.50;;;;;;;;;;6230945;28;20270;-69
2023/10/07 08:29:30;;;;;;;6.57;4.97;;;;;;;;;;6229659;28;20210;-63
2023/10/07 08:32:35;;;;;;;7.13;4.37;;;;;;;;;;6213766;28;20222;-63
2023/10/07 08:35:36;;;;;;;5.70;4.60;;;;;;;;;;6211034;28;20279;-64
2023/10/07 08:38:50;;;;;;;6.17;4.73;;;;;;;;;;6202673;28;20204;-64
2023/10/07 08:41:52;;;;;;;9.50;5.20;;;;;;;;;;6217380;28;20226;-65
2023/10/07 08:44:58;;;;;;;6.43;4.83;;;;;;;;;;6209736;28;20249;-66
2023/10/07 08:48:15;;;;;;;6.83;4.87;;;;;;;;;;6205560;28;20220;-65
2023/10/07 08:51:25;;;;;;;6.97;4.93;;;;;;;;;;6222251;28;20231;-68
2023/10/07 08:54:27;;;;;;;5.33;4.47;;;;;;;;;;6226878;28;20242;-63
2023/10/07 08:57:28;;;;;;;6.40;4.23;;;;;;;;;;6206251;28;20195;-64
2023/10/07 09:00:39;;;;;;;6.10;4.33;;;;;;;;;;6229424;28;20190;-63
2023/10/07 09:03:41;;;;;;;5.43;4.10;;;;;;;;;;6218186;28;20195;-65
2023/10/07 09:06:50;;;;;;;5.07;4.30;;;;;;;;;;6202427;28;20230;-65
2023/10/07 09:09:52;;;;;;;7.43;4.43;;;;;;;;;;6209594;28;20232;-63
2023/10/07 09:12:56;;;;;;;5.17;4.10;;;;;;;;;;6202883;28;20191;-63
2023/10/07 09:16:03;;;;;;;5.83;4.13;;;;;;;;;;6203834;28;20195;-63
2023/10/07 09:19:10;;;;;;;5.53;4.17;;;;;;;;;;6213566;28;20208;-63
2023/10/07 09:22:12;;;;;;;6.07;4.50;;;;;;;;;;6203697;28;20202;-63
2023/10/07 09:25:29;;;;;;;5.70;4.00;;;;;;;;;;6207065;28;20246;-64
2023/10/07 09:28:38;;;;;;;4.70;4.00;;;;;;;;;;6216229;28;20192;-64
2023/10/07 09:31:39;;;;;;;7.00;5.30;;;;;;;;;;6219877;28;20245;-63
2023/10/07 09:34:54;;;;;;;7.03;4.77;;;;;;;;;;6204329;28;20198;-63
2023/10/07 09:37:59;;;;;;;6.60;4.50;;;;;;;;;;6215579;28;20193;-64
2023/10/07 09:41:12;;;;;;;5.73;4.53;;;;;;;;;;6224644;28;20187;-64
2023/10/07 09:44:28;;;;;;;6.67;4.43;;;;;;;;;;6218966;28;20204;-64
2023/10/07 09:47:30;;;;;;;6.60;4.73;;;;;;;;;;6213637;28;20253;-64
2023/10/07 09:50:34;;;;;;;5.60;4.30;;;;;;;;;;6210287;28;20219;-64
2023/10/07 09:53:51;;;;;;;6.67;4.23;;;;;;;;;;6206400;28;20196;-65
2023/10/07 09:57:07;;;;;;;5.67;4.63;;;;;;;;;;6224022;28;20222;-63
2023/10/07 10:00:37;;;;;;;7.00;4.40;;;;;;;;;;6223854;28;20187;-64
2023/10/07 10:03:47;;;;;;;7.77;5.07;;;;;;;;;;6236888;28;20203;-64
2023/10/07 10:07:06;;;;;;;7.00;3.90;;;;;;;;;;6223748;28;20242;-64
2023/10/07 10:10:12;;;;;;;5.93;4.37;;;;;;;;;;6220262;28;20234;-64
2023/10/07 10:13:51;;;;;;;7.17;4.57;;;;;;;;;;6221457;28;20204;-64
2023/10/07 10:16:57;;;;;;;5.20;4.47;;;;;;;;;;6226747;28;20204;-63
2023/10/07 10:20:09;;;;;;;5.13;3.80;;;;;;;;;;6211719;28;20196;-64
2023/10/07 10:23:20;;;;;;;5.17;4.10;;;;;;;;;;6212632;28;20231;-65
2023/10/07 10:26:23;;;;;;;5.67;4.17;;;;;;;;;;6228983;28;20196;-65
2023/10/07 10:29:25;;;;;;;6.80;4.27;;;;;;;;;;6233638;28;20219;-64
2023/10/07 10:32:30;;;;;;;5.07;4.10;;;;;;;;;;6201341;28;20276;-67
2023/10/07 10:35:33;;;;;;;6.23;4.43;;;;;;;;;;6224347;28;20369;-64
2023/10/07 10:38:37;;;;;;;6.30;4.53;;;;;;;;;;6204604;28;20233;-64
2023/10/07 10:41:39;;;;;;;4.87;4.03;;;;;;;;;;6231667;28;20239;-64
2023/10/07 10:44:42;;;;;;;5.97;4.57;;;;;;;;;;6207002;28;20199;-64
2023/10/07 10:47:46;;;;;;;5.87;4.20;;;;;;;;;;6233529;28;20237;-62
2023/10/07 10:50:49;;;;;;;4.97;3.97;;;;;;;;;;6224369;28;20211;-62
2023/10/07 10:53:50;;;;;;;6.73;4.43;;;;;;;;;;6230022;28;20191;-63
2023/10/07 10:56:58;;;;;;;5.50;4.53;;;;;;;;;;6209070;28;20220;-63
2023/10/07 11:00:06;;;;;;;7.63;4.93;;;;;;;;;;6216923;28;20191;-63
2023/10/07 11:03:07;;;;;;;7.27;4.97;;;;;;;;;;6207152;28;20203;-63
2023/10/07 11:06:11;;;;;;;7.63;4.53;;;;;;;;;;6206755;28;20198;-63
2023/10/07 11:09:17;;;;;;;6.13;5.10;;;;;;;;;;6207545;28;20216;-62
2023/10/07 11:12:19;;;;;;;8.93;5.53;;;;;;;;;;6201856;28;20992;-63
2023/10/07 11:15:29;;;;;;;6.53;5.10;;;;;;;;;;6228026;28;20194;-63
2023/10/07 11:18:31;;;;;;;6.93;4.70;;;;;;;;;;6212844;28;20200;-63
2023/10/07 11:21:34;;;;;;;6.47;4.50;;;;;;;;;;6214639;28;20211;-63
2023/10/07 11:24:37;;;;;;;7.73;4.70;;;;;;;;;;6214268;28;20254;-63
2023/10/07 11:27:38;;;;;;;6.10;4.23;;;;;;;;;;6224395;28;20297;-63
2023/10/07 11:30:46;;;;;;;6.40;4.43;;;;;;;;;;6211992;28;20219;-63
2023/10/07 11:33:51;;;;;;;5.03;3.53;;;;;;;;;;6224457;28;20233;-65
2023/10/07 11:36:53;;;;;;;6.27;4.20;;;;;;;;;;6219458;28;20283;-65
2023/10/07 11:39:54;;;;;;;4.53;3.67;;;;;;;;;;6217122;28;20282;-66
2023/10/07 11:42:58;;;;;;;5.80;3.30;;;;;;;;;;6208358;28;20195;-65
2023/10/07 11:46:00;;;;;;;5.53;3.47;;;;;;;;;;6209108;28;20214;-67
2023/10/07 11:49:01;;;;;;;4.80;3.90;;;;;;;;;;6205250;28;20211;-62
2023/10/07 11:52:06;;;;;;;6.77;4.23;;;;;;;;;;6229699;28;20278;-62
2023/10/07 11:55:07;;;;;;;4.47;3.83;;;;;;;;;;6207943;28;20190;-62
2023/10/07 11:58:09;;;;;;;5.97;3.90;;;;;;;;;;6216608;28;20190;-63
2023/10/07 12:01:11;;;;;;;5.70;3.63;;;;;;;;;;6203165;28;20194;-66
2023/10/07 12:04:12;;;;;;;4.50;3.80;;;;;;;;;;6205942;28;20233;-63
2023/10/07 12:07:14;;;;;;;4.77;3.50;;;;;;;;;;6196811;28;20198;-63
2023/10/07 12:10:16;;;;;;;4.13;3.33;;;;;;;;;;6229558;28;20253;-63
2023/10/07 12:13:19;;;;;;;8.33;3.47;;;;;;;;;;6231756;28;20189;-63
2023/10/07 12:16:21;;;;;;;4.70;3.80;;;;;;;;;;6214801;28;20191;-63
2023/10/07 12:19:25;;;;;;;3.90;3.50;;;;;;;;;;6209692;28;20199;-66
2023/10/07 12:22:26;;;;;;;4.90;3.70;;;;;;;;;;6209267;28;20282;-64
2023/10/07 12:25:28;;;;;;;4.40;3.53;;;;;;;;;;6208634;28;20295;-65
2023/10/07 12:28:30;;;;;;;4.43;3.60;;;;;;;;;;6204421;28;20207;-63
2023/10/07 12:31:31;;;;;;;4.57;3.73;;;;;;;;;;6210096;28;20236;-65
2023/10/07 12:34:32;;;;;;;5.77;4.17;;;24.00;50.00;;;;;;6211527;28;20194;-65
2023/10/07 12:37:33;;;;;;;5.40;3.90;;;13.10;51.40;;;;;;6195456;28;20202;-65
2023/10/07 12:40:33;;;;;;;5.10;4.03;;;12.80;52.80;;;;;;6197441;28;20248;-65
2023/10/07 12:43:36;;;;;;;5.20;4.50;;;;;;;;;;6190859;28;20248;-64
2023/10/07 12:46:38;;;;;;;4.90;3.97;;;10.80;51.70;;;;;;6208196;28;20202;-65
2023/10/07 12:49:40;;;;;;;5.90;4.30;;;;;;;;;;6198586;28;20222;-66
2023/10/07 12:52:41;;;;;;;4.67;3.80;;;;;;;;;;6209116;28;20217;-65
2023/10/07 12:55:42;;;;;;;4.57;3.60;;;;;;;;;;6211618;28;20187;-65
2023/10/07 12:58:46;;;;;;;5.30;3.73;;;;;;;;;;6225589;28;20187;-65
2023/10/07 13:01:51;;;;;;;5.10;3.93;;;;;;;;;;6212494;28;20195;-65
2023/10/07 13:04:55;;;;;;;4.10;3.47;;;;;;;;;;6218784;28;20187;-65
2023/10/07 13:07:56;;;;;;;4.37;3.80;;;;;;;;;;6211121;28;20194;-65
2023/10/07 13:10:57;;;;;;;4.67;3.93;;;;;;;;;;6204781;28;20223;-65
2023/10/07 13:13:58;;;;;;;5.47;4.07;;;;;;;;;;6211058;28;20240;-64
2023/10/07 13:16:59;;;;;;;4.97;3.57;;;;;;;;;;6212340;28;20221;-64
2023/10/07 13:20:00;;;;;;;4.80;3.73;;;;;;;;;;6225453;28;20244;-65
2023/10/07 13:23:05;;;;;;;5.03;3.63;;;;;;;;;;6206578;28;20361;-64
2023/10/07 13:26:10;;;;;;;5.50;4.20;;;;;;;;;;6207659;28;20194;-65
2023/10/07 13:29:12;;;;;;;4.90;3.60;;;;;;;;;;6218641;28;20233;-65
2023/10/07 13:32:13;;;;;;;5.27;3.83;;;;;;;;;;6206441;28;20279;-65
2023/10/07 13:35:15;;;;;;;4.87;3.53;;;9.00;52.70;;;;;;6203341;28;20219;-66
2023/10/07 13:38:16;;;;;;;4.10;3.70;;;;;;;;;;6220402;28;20218;-66
2023/10/07 13:41:17;;;;;;;4.87;4.37;;;32.40;36.50;;;;;;6194906;28;20194;-66
2023/10/07 13:44:22;;;;;;;4.30;3.87;;;33.20;33.80;;;;;;6204853;28;20248;-66
2023/10/07 13:47:23;;;;;;;6.10;4.13;;;33.80;35.30;;;;;;6209371;28;20207;-66
2023/10/07 13:50:26;;;;;;;4.37;3.93;;;34.80;34.00;;;;;;6182304;28;20277;-66
2023/10/07 13:56:53;;;;;;;4.80;4.30;;;35.00;33.30;;;;;;6243291;28;20214;-66
2023/10/07 13:59:54;;;;;;;5.10;4.30;;;;;;;;;;6217873;28;20199;-66
2023/10/07 14:02:59;;;;;;;4.23;3.83;;;;;;;;;;6221919;28;20198;-66
2023/10/07 14:06:02;;;;;;;5.10;4.33;;;28.90;40.40;;;;;;6227631;28;20188;-66
2023/10/07 14:09:04;;;;;;;7.73;4.87;;;;;;;;;;6209166;28;20257;-65
2023/10/07 14:12:06;;;;;;;5.63;4.03;;;28.60;40.90;;;;;;6200054;28;20195;-65
2023/10/07 14:15:08;;;;;;;4.40;4.00;;;;;;;;;;6215159;28;20194;-65
2023/10/07 14:18:09;;;;;;;5.60;4.00;;;;;;;;;;6209491;28;20199;-65
2023/10/07 14:21:10;;;;;;;4.70;4.00;;;;;;;;;;6231385;28;20190;-65
2023/10/07 14:24:11;;;;;;;5.13;4.20;;;;;;;;;;6224410;28;20234;-64
2023/10/07 14:27:13;;;;;;;4.30;3.90;;;;;;;;;;6223776;28;20191;-64
2023/10/07 14:30:17;;;;;;;5.27;4.13;;;25.00;52.10;;;;;;6236633;28;20260;-64
2023/10/07 14:33:18;;;;;;;5.23;3.93;;;24.20;56.80;;;;;;6210174;28;20191;-64
2023/10/07 14:36:21;;;;;;;5.20;4.20;;;24.00;58.40;;;;;;6220026;28;20218;-62
2023/10/07 14:39:22;;;;;;;7.00;3.90;;;;;;;;;;6199134;28;20199;-63
2023/10/07 14:42:25;;;;;;;5.83;4.40;;;;;;;;;;6204528;28;20195;-62
2023/10/07 14:45:26;;;;;;;5.07;4.00;;;;;;;;;;6229978;28;20195;-63
2023/10/07 14:48:27;;;;;;;6.60;3.87;;;;;;;;;;6211615;28;20190;-63
2023/10/07 14:51:29;;;;;;;5.17;4.30;;;;;;;;;;6216205;28;20214;-63
2023/10/07 14:54:30;;;;;;;6.17;3.70;;;;;;;;;;6217365;28;20260;-63
2023/10/07 14:57:32;;;;;;;5.10;4.00;;;;;;;;;;6211902;28;20190;-63
2023/10/07 15:00:33;;;;;;;5.33;4.03;;;24.00;50.00;;;;;;6213067;28;20265;-63
2023/10/07 15:03:33;;;;;;;5.27;4.10;;;22.60;64.20;;;;;;6196045;28;20213;-63
2023/10/07 15:06:34;;;;;;;5.20;4.10;;;22.70;63.00;;;;;;6198657;28;20205;-63
2023/10/07 15:09:36;;;;;;;4.50;3.70;;;22.80;61.80;;;;;;6190265;28;20213;-63
2023/10/07 15:12:38;;;;;;;5.13;4.03;;;23.10;62.10;;;;;;6209776;28;20194;-63
2023/10/07 15:15:39;;;;;;;5.50;3.90;;;;;;;;;;6186961;28;20189;-63
2023/10/07 15:18:41;;;;;;;6.20;4.03;;;;;;;;;;6208973;28;20198;-63
2023/10/07 15:21:42;;;;;;;6.23;4.63;;;;;;;;;;6226315;28;20212;-63
2023/10/07 15:24:44;;;;;;;4.93;4.13;;;;;;;;;;6217957;28;20317;-63
2023/10/07 15:27:45;;;;;;;5.70;4.03;;;;;;;;;;6223993;28;20194;-63
2023/10/07 15:30:46;;;;;;;4.60;4.07;;;23.40;61.10;;;;;;6209847;28;20217;-63
2023/10/07 15:33:53;;;;;;;6.97;4.40;;;;;;;;;;6197771;28;20194;-63
2023/10/07 15:36:56;;;;;;;6.27;4.60;;;;;;;;;;6221386;28;20241;-62
2023/10/07 15:40:01;;;;;;;4.53;3.87;;;;;;;;;;6204102;28;20281;-62
2023/10/07 15:43:02;;;;;;;5.47;4.13;;;;;;;;;;6212848;28;20200;-63
2023/10/07 15:46:06;;;;;;;6.70;4.37;;;;;;;;;;6206735;28;20195;-63
2023/10/07 15:49:10;;;;;;;5.10;4.03;;;;;;;;;;6201796;28;20228;-62
2023/10/07 15:52:11;;;;;;;5.73;3.73;;;;;;;;;;6210256;28;20191;-65
2023/10/07 15:55:12;;;;;;;5.73;4.40;;;22.90;60.50;;;;;;6198655;28;20190;-62
2023/10/07 15:58:13;;;;;;;8.77;6.40;;;;;;;;;;6183542;28;20204;-62
2023/10/07 16:01:15;;;;;;;7.97;5.47;;;;;;;;;;6208351;28;20206;-64
2023/10/07 16:04:16;;;;;;;6.27;5.17;;;20.70;67.20;;;;;;6228636;28;20198;-63
2023/10/07 16:07:16;;;;;;;7.03;4.80;;;20.30;68.00;;;;;;6189867;28;20202;-64
2023/10/07 16:10:19;;;;;;;7.10;4.33;;;;;;;;;;6199104;28;20228;-66
2023/10/07 16:13:20;;;;;;;5.53;4.40;;;;;;;;;;6226524;28;20189;-65
2023/10/07 16:16:21;;;;;;;6.13;4.37;;;;;;;;;;6210495;28;20218;-66
2023/10/07 16:19:22;;;;;;;4.77;4.17;;;;;;;;;;6198937;28;20187;-66
2023/10/07 16:22:23;;;;;;;5.53;4.27;;;;;;;;;;6199316;28;20183;-66
2023/10/07 16:25:25;;;;;;;5.40;4.63;;;;;;;;;;6220062;28;20242;-65
2023/10/07 16:28:26;;;;;;;5.97;3.97;;;;;;;;;;6217865;28;20187;-65
2023/10/07 16:31:27;;;;;;;6.07;4.73;;;;;;;;;;6217350;28;20210;-65
2023/10/07 16:34:28;;;;;;;8.07;4.70;;;;;;;;;;6219362;28;20225;-63
2023/10/07 16:37:30;;;;;;;5.93;4.80;;;;;;;;;;6211248;28;20208;-63
2023/10/07 16:40:31;;;;;;;8.40;5.40;;;;;;;;;;6229002;28;20201;-63
2023/10/07 16:43:32;;;;;;;7.70;6.37;;;;;;;;;;6214203;28;20206;-64
2023/10/07 16:46:33;;;;;;;9.67;5.90;;;;;;;;;;6222916;28;20234;-64
2023/10/07 16:49:35;;;;;;;7.60;5.33;;;;;;;;;;6205900;28;20290;-63
2023/10/07 16:52:37;;;;;;;6.77;5.03;;;;;;;;;;6221319;28;20187;-64
2023/10/07 16:55:38;;;;;;;6.67;4.43;;;;;;;;;;6220446;28;20187;-64
2023/10/07 16:58:39;;;;;;;7.83;4.53;;;;;;;;;;6210432;28;20195;-63
2023/10/07 17:01:40;;;;;;;5.77;4.50;;;;;;;;;;6230910;28;20195;-64
2023/10/07 17:04:42;;;;;;;5.10;4.13;;;;;;;;;;6205433;28;20195;-63
2023/10/07 17:07:45;;;;;;;7.60;4.00;;;;;;;;;;6224456;28;20201;-63
2023/10/07 17:10:46;;;;;;;5.50;4.17;;;;;;;;;;6229652;28;20263;-63
2023/10/07 17:13:48;;;;;;;3.93;3.53;;;;;;;;;;6222368;28;20241;-64
2023/10/07 17:16:49;;;;;;;6.03;4.10;;;;;;;;;;6224495;28;20265;-64
2023/10/07 17:19:50;;;;;;;6.00;4.93;;;;;;;;;;6205741;28;20203;-64
2023/10/07 17:22:52;;;;;;;5.73;4.60;;;;;;;;;;6214513;28;20187;-63
2023/10/07 17:25:54;;;;;;;5.07;4.27;;;;;;;;;;6204137;28;20209;-63
2023/10/07 17:28:55;;;;;;;5.50;4.40;;;;;;;;;;6237486;28;20295;-63
2023/10/07 17:31:56;;;;;;;5.33;4.27;;;;;;;;;;6201807;28;20195;-63
2023/10/07 17:34:58;;;;;;;6.53;4.17;;;;;;;;;;6212731;28;20199;-63
2023/10/07 17:37:59;;;;;;;5.67;4.40;;;;;;;;;;6223700;28;20248;-63
2023/10/07 17:41:01;;;;;;;4.57;4.10;;;;;;;;;;6214460;28;20281;-64
2023/10/07 17:44:02;;;;;;;7.23;4.93;;;;;;;;;;6226544;28;20195;-63
2023/10/07 17:47:03;;;;;;;5.23;4.43;;;;;;;;;;6225580;28;20281;-63
2023/10/07 17:50:05;;;;;;;5.90;4.67;;;;;;;;;;6220689;28;20218;-64
2023/10/07 17:53:09;;;;;;;5.07;4.17;;;;;;;;;;6234795;28;20194;-64
2023/10/07 17:56:10;;;;;;;5.23;4.30;;;;;;;;;;6213217;28;20188;-63
2023/10/07 17:59:11;;;;;;;7.30;4.50;;;;;;;;;;6234443;28;20195;-63
2023/10/07 18:02:12;;;;;;;5.47;4.30;;;;;;;;;;6202641;28;20195;-64
2023/10/07 18:05:14;;;;;;;5.30;3.97;;;;;;;;;;6232684;28;20193;-64